createdAt,value
2023-03-06T00:00:47.251Z,100443.44
2023-03-06T00:01:51.786Z,100447.84
2023-03-06T00:03:13.361Z,100447.00
2023-03-06T00:04:35.974Z,100446.16
2023-03-06T00:05:59.393Z,100440.88
2023-03-06T00:07:23.318Z,100433.97
2023-03-06T00:08:44.867Z,100440.03
2023-03-06T00:10:07.868Z,100433.13
2023-03-06T00:11:30.446Z,100435.63
2023-03-06T00:12:52.813Z,100435.63
2023-03-06T00:14:15.905Z,100435.63
2023-03-06T00:15:26.732Z,100435.63
2023-03-06T00:16:29.375Z,100434.69
2023-03-06T00:17:30.886Z,100431.22
2023-03-06T00:18:33.766Z,100434.56
2023-03-06T00:19:35.606Z,100427.44
2023-03-06T00:20:40.613Z,100428.28
2023-03-06T00:21:42.294Z,100428.28
2023-03-06T00:22:46.314Z,100429.16
2023-03-06T00:23:47.974Z,100421.13
2023-03-06T00:24:50.483Z,100413.16
2023-03-06T00:25:52.105Z,100421.03
2023-03-06T00:26:54.625Z,100424.50
2023-03-06T00:27:56.199Z,100424.50
2023-03-06T00:28:58.884Z,100417.56
2023-03-06T00:30:01.369Z,100415.88
2023-03-06T00:31:05.080Z,100421.13
2023-03-06T00:32:07.741Z,100421.97
2023-03-06T00:33:10.330Z,100415.88
2023-03-06T00:34:12.271Z,100410.72
2023-03-06T00:35:15.553Z,100414.16
2023-03-06T00:36:17.480Z,100417.78
2023-03-06T00:37:20.848Z,100412.50
2023-03-06T00:38:25.238Z,100409.13
2023-03-06T00:39:27.752Z,100406.47
2023-03-06T00:40:29.253Z,100416.16
2023-03-06T00:41:31.765Z,100404.81
2023-03-06T00:42:33.319Z,100411.75
2023-03-06T00:43:35.878Z,100395.88
2023-03-06T00:44:37.388Z,100399.22
2023-03-06T00:45:40.411Z,100399.22
2023-03-06T00:46:42.183Z,100402.63
2023-03-06T00:47:44.864Z,100396.41
2023-03-06T00:48:46.479Z,100391.13
2023-03-06T00:49:48.959Z,100395.38
2023-03-06T00:50:50.485Z,100396.31
2023-03-06T00:51:52.983Z,100392.09
2023-03-06T00:52:54.563Z,100394.81
2023-03-06T00:53:58.394Z,100382.59
2023-03-06T00:55:00.185Z,100386.06
2023-03-06T00:56:02.670Z,100387.84
2023-03-06T00:57:05.082Z,100391.34
2023-03-06T00:58:07.575Z,100385.22
2023-03-06T00:59:09.121Z,100388.81
2023-03-06T01:00:14.053Z,100387.13
2023-03-06T01:01:16.936Z,100383.75
2023-03-06T01:02:20.536Z,100383.00
2023-03-06T01:03:22.115Z,100375.22
2023-03-06T01:04:24.946Z,100381.50
2023-03-06T01:05:26.550Z,100378.16
2023-03-06T01:06:29.503Z,100373.00
2023-03-06T01:07:33.921Z,100380.06
2023-03-06T01:08:36.581Z,100372.25
2023-03-06T01:09:39.476Z,100377.63
2023-03-06T01:10:42.063Z,100379.41
2023-03-06T01:11:43.620Z,100381.38
2023-03-06T01:12:46.661Z,100370.22
2023-03-06T01:13:48.358Z,100372.00
2023-03-06T01:14:50.897Z,100370.50
2023-03-06T01:15:52.792Z,100365.44
2023-03-06T01:16:55.294Z,100365.66
2023-03-06T01:17:56.948Z,100361.44
2023-03-06T01:18:59.901Z,100360.78
2023-03-06T01:20:01.550Z,100361.00
2023-03-06T01:21:04.822Z,100362.03
2023-03-06T01:22:06.624Z,100363.91
2023-03-06T01:23:09.192Z,100357.84
2023-03-06T01:24:10.817Z,100358.66
2023-03-06T01:25:14.692Z,100355.19
2023-03-06T01:26:16.324Z,100359.50
2023-03-06T01:27:18.946Z,100355.94
2023-03-06T01:28:20.503Z,100355.09
2023-03-06T01:29:23.021Z,100361.19
2023-03-06T01:30:24.566Z,100362.88
2023-03-06T01:31:27.403Z,100355.00
2023-03-06T01:32:30.608Z,100356.66
2023-03-06T01:33:33.626Z,100348.78
2023-03-06T01:34:35.204Z,100345.22
2023-03-06T01:35:39.034Z,100350.47
2023-03-06T01:36:40.880Z,100346.06
2023-03-06T01:37:43.476Z,100340.69
2023-03-06T01:38:45.080Z,100345.88
2023-03-06T01:39:47.596Z,100348.38
2023-03-06T01:40:51.592Z,100343.97
2023-03-06T01:41:53.321Z,100346.50
2023-03-06T01:42:55.856Z,100341.13
2023-03-06T01:43:57.361Z,100340.31
2023-03-06T01:45:01.884Z,100344.63
2023-03-06T01:46:38.681Z,100334.84
2023-03-06T01:47:40.374Z,100337.47
2023-03-06T01:48:44.329Z,100331.25
2023-03-06T01:49:45.951Z,100323.38
2023-03-06T01:50:49.109Z,100325.06
2023-03-06T01:51:55.246Z,100323.28
2023-03-06T01:52:59.453Z,100321.38
2023-03-06T01:54:07.515Z,100330.97
2023-03-06T01:55:13.372Z,100324.00
2023-03-06T01:56:17.596Z,100326.56
2023-03-06T01:57:22.376Z,100324.88
2023-03-06T01:58:24.947Z,100322.22
2023-03-06T01:59:28.533Z,100314.34
2023-03-06T02:00:31.440Z,100317.91
2023-03-06T02:01:33.639Z,100316.03
2023-03-06T02:02:37.086Z,100319.59
2023-03-06T02:03:40.092Z,100317.91
2023-03-06T02:04:44.092Z,100317.06
2023-03-06T02:05:46.220Z,100310.97
2023-03-06T02:06:49.179Z,100311.91
2023-03-06T02:07:51.870Z,100310.97
2023-03-06T02:08:55.320Z,100315.38
2023-03-06T02:09:57.071Z,100306.66
2023-03-06T02:11:10.339Z,100311.91
2023-03-06T02:12:16.305Z,100309.28
2023-03-06T02:13:18.800Z,100303.19
2023-03-06T02:14:21.449Z,100310.22
2023-03-06T02:15:25.660Z,100298.97
2023-03-06T02:16:30.867Z,100301.47
2023-03-06T02:17:35.388Z,100300.66
2023-03-06T02:18:39.118Z,100304.97
2023-03-06T02:19:50.052Z,100301.41
2023-03-06T02:20:54.971Z,100297.06
2023-03-06T02:21:56.741Z,100296.22
2023-03-06T02:23:05.799Z,100300.66
2023-03-06T02:24:20.052Z,100298.97
2023-03-06T02:25:34.157Z,100297.28
2023-03-06T02:26:37.683Z,100303.50
2023-03-06T02:27:40.553Z,100295.69
2023-03-06T02:28:42.702Z,100295.78
2023-03-06T02:29:45.316Z,100295.78
2023-03-06T02:30:48.968Z,100293.91
2023-03-06T02:31:51.800Z,100290.53
2023-03-06T02:32:53.621Z,100291.38
2023-03-06T02:34:09.021Z,100293.16
2023-03-06T02:35:18.466Z,100291.38
2023-03-06T02:36:21.072Z,100298.31
2023-03-06T02:37:23.707Z,100288.66
2023-03-06T02:38:30.348Z,100288.66
2023-03-06T02:39:34.315Z,100293.91
2023-03-06T02:40:38.572Z,100293.06
2023-03-06T02:41:41.396Z,100285.25
2023-03-06T02:42:47.279Z,100291.50
2023-03-06T02:43:50.406Z,100286.97
2023-03-06T02:44:55.156Z,100298.31
2023-03-06T02:45:56.789Z,100288.66
2023-03-06T02:46:59.432Z,100295.59
2023-03-06T02:48:01.042Z,100291.16
2023-03-06T02:49:03.644Z,100286.03
2023-03-06T02:50:05.530Z,100291.16
2023-03-06T02:51:08.017Z,100285.09
2023-03-06T02:52:09.627Z,100287.72
2023-03-06T02:53:13.350Z,100279.81
2023-03-06T02:54:18.179Z,100283.41
2023-03-06T02:55:20.658Z,100283.41
2023-03-06T02:56:23.491Z,100286.03
2023-03-06T02:57:25.996Z,100286.03
2023-03-06T02:58:27.787Z,100283.47
2023-03-06T02:59:30.333Z,100287.88
2023-03-06T03:00:32.610Z,100281.69
2023-03-06T03:01:35.158Z,100285.25
2023-03-06T03:02:37.071Z,100293.06
2023-03-06T03:03:39.630Z,100285.25
2023-03-06T03:04:41.352Z,100279.19
2023-03-06T03:05:43.867Z,100282.63
2023-03-06T03:06:45.378Z,100274.66
2023-03-06T03:07:48.152Z,100277.28
2023-03-06T03:08:49.674Z,100277.38
2023-03-06T03:09:52.287Z,100280.84
2023-03-06T03:10:55.665Z,100279.91
2023-03-06T03:11:59.527Z,100279.06
2023-03-06T03:13:01.111Z,100277.28
2023-03-06T03:14:03.603Z,100272.13
2023-03-06T03:15:06.731Z,100274.75
2023-03-06T03:16:13.859Z,100272.22
2023-03-06T03:17:16.030Z,100273.09
2023-03-06T03:18:22.797Z,100273.94
2023-03-06T03:19:24.363Z,100275.59
2023-03-06T03:20:27.036Z,100270.34
2023-03-06T03:21:28.664Z,100271.19
2023-03-06T03:22:31.691Z,100272.03
2023-03-06T03:23:33.343Z,100272.03
2023-03-06T03:24:35.986Z,100269.47
2023-03-06T03:25:37.552Z,100267.69
2023-03-06T03:26:40.148Z,100266.84
2023-03-06T03:27:43.523Z,100266.97
2023-03-06T03:28:46.173Z,100266.13
2023-03-06T03:29:47.789Z,100263.63
2023-03-06T03:30:50.288Z,100266.34
2023-03-06T03:31:51.887Z,100262.00
2023-03-06T03:32:54.621Z,100262.00
2023-03-06T03:33:56.221Z,100262.97
2023-03-06T03:34:58.801Z,100257.72
2023-03-06T03:36:02.613Z,100257.72
2023-03-06T03:37:05.497Z,100258.53
2023-03-06T03:38:07.069Z,100255.09
2023-03-06T03:39:10.123Z,100255.09
2023-03-06T03:40:12.729Z,100248.13
2023-03-06T03:41:15.248Z,100254.31
2023-03-06T03:42:16.796Z,100249.91
2023-03-06T03:43:21.302Z,100243.81
2023-03-06T03:44:22.939Z,100246.34
2023-03-06T03:45:25.667Z,100245.50
2023-03-06T03:46:27.479Z,100242.13
2023-03-06T03:47:30.482Z,100245.69
2023-03-06T03:48:32.100Z,100237.03
2023-03-06T03:49:34.620Z,100240.63
2023-03-06T03:50:36.160Z,100231.97
2023-03-06T03:51:41.873Z,100231.97
2023-03-06T03:52:43.444Z,100230.31
2023-03-06T03:53:46.546Z,100229.47
2023-03-06T03:54:48.195Z,100229.47
2023-03-06T03:55:51.478Z,100235.56
2023-03-06T03:56:53.013Z,100232.19
2023-03-06T03:57:55.506Z,100226.91
2023-03-06T03:58:59.201Z,100220.00
2023-03-06T04:00:01.760Z,100227.03
2023-03-06T04:01:05.306Z,100228.81
2023-03-06T04:02:07.849Z,100221.78
2023-03-06T04:03:09.548Z,100225.25
2023-03-06T04:04:12.138Z,100220.00
2023-03-06T04:05:14.979Z,100221.66
2023-03-06T04:06:18.708Z,100220.72
2023-03-06T04:07:20.225Z,100223.34
2023-03-06T04:08:24.276Z,100224.09
2023-03-06T04:09:25.829Z,100224.00
2023-03-06T04:10:28.781Z,100224.00
2023-03-06T04:11:30.343Z,100230.09
2023-03-06T04:12:33.306Z,100221.38
2023-03-06T04:13:34.872Z,100227.47
2023-03-06T04:14:38.747Z,100226.50
2023-03-06T04:15:40.258Z,100227.34
2023-03-06T04:16:43.103Z,100224.72
2023-03-06T04:17:44.618Z,100220.44
2023-03-06T04:18:47.205Z,100219.59
2023-03-06T04:19:48.891Z,100219.69
2023-03-06T04:20:51.499Z,100215.38
2023-03-06T04:21:53.048Z,100224.94
2023-03-06T04:22:55.564Z,100213.56
2023-03-06T04:23:58.394Z,100210.00
2023-03-06T04:25:00.898Z,100210.72
2023-03-06T04:26:02.724Z,100207.16
2023-03-06T04:27:05.650Z,100207.16
2023-03-06T04:28:07.819Z,100207.00
2023-03-06T04:29:13.507Z,100196.47
2023-03-06T04:30:16.598Z,100201.72
2023-03-06T04:31:19.192Z,100197.31
2023-03-06T04:32:21.638Z,100199.88
2023-03-06T04:33:24.560Z,100198.06
2023-03-06T04:34:26.175Z,100192.69
2023-03-06T04:35:28.915Z,100190.16
2023-03-06T04:36:33.054Z,100191.84
2023-03-06T04:37:34.665Z,100183.88
2023-03-06T04:38:37.202Z,100202.28
2023-03-06T04:39:38.774Z,100194.41
2023-03-06T04:40:42.931Z,100188.28
2023-03-06T04:41:46.224Z,100195.25
2023-03-06T04:42:49.171Z,100194.41
2023-03-06T04:43:51.412Z,100190.81
2023-03-06T04:44:53.938Z,100183.88
2023-03-06T04:45:58.053Z,100178.72
2023-03-06T04:47:01.265Z,100178.84
2023-03-06T04:48:03.102Z,100184.19
2023-03-06T04:49:05.678Z,100183.41
2023-03-06T04:50:08.858Z,100178.16
2023-03-06T04:51:12.257Z,100179.19
2023-03-06T04:52:13.830Z,100176.75
2023-03-06T04:53:16.905Z,100175.81
2023-03-06T04:54:19.119Z,100182.78
2023-03-06T04:55:21.940Z,100174.88
2023-03-06T04:56:23.653Z,100178.38
2023-03-06T04:57:26.148Z,100173.94
2023-03-06T04:58:27.736Z,100180.88
2023-03-06T04:59:30.247Z,100179.94
2023-03-06T05:00:31.864Z,100178.16
2023-03-06T05:01:36.074Z,100174.59
2023-03-06T05:02:37.663Z,100175.44
2023-03-06T05:03:40.182Z,100172.81
2023-03-06T05:04:41.813Z,100175.44
2023-03-06T05:05:44.390Z,100173.78
2023-03-06T05:06:46.383Z,100172.72
2023-03-06T05:07:48.913Z,100179.66
2023-03-06T05:08:50.432Z,100174.38
2023-03-06T05:09:53.318Z,100175.22
2023-03-06T05:10:56.905Z,100175.22
2023-03-06T05:11:59.436Z,100176.94
2023-03-06T05:13:01.049Z,100176.94
2023-03-06T05:14:13.219Z,100181.34
2023-03-06T05:15:16.386Z,100176.94
2023-03-06T05:16:18.929Z,100182.19
2023-03-06T05:17:21.962Z,100182.19
2023-03-06T05:18:24.440Z,100181.34
2023-03-06T05:19:26.249Z,100183.13
2023-03-06T05:20:29.076Z,100178.72
2023-03-06T05:21:30.649Z,100180.41
2023-03-06T05:22:33.327Z,100181.25
2023-03-06T05:23:38.296Z,100177.78
2023-03-06T05:24:41.605Z,100170.81
2023-03-06T05:25:43.280Z,100181.47
2023-03-06T05:26:45.934Z,100184.09
2023-03-06T05:27:47.490Z,100171.88
2023-03-06T05:28:50.035Z,100176.19
2023-03-06T05:29:51.599Z,100173.56
2023-03-06T05:30:54.076Z,100175.22
2023-03-06T05:31:55.928Z,100179.56
2023-03-06T05:33:00.393Z,100176.94
2023-03-06T05:34:01.992Z,100179.56
2023-03-06T05:35:06.275Z,100178.84
2023-03-06T05:36:08.941Z,100184.09
2023-03-06T05:37:11.473Z,100178.84
2023-03-06T05:38:13.711Z,100177.97
2023-03-06T05:39:16.284Z,100181.47
2023-03-06T05:40:18.678Z,100180.69
2023-03-06T05:41:21.678Z,100175.44
2023-03-06T05:42:23.504Z,100174.59
2023-03-06T05:43:26.421Z,100179.03
2023-03-06T05:44:30.871Z,100178.06
2023-03-06T05:45:33.505Z,100184.28
2023-03-06T05:46:35.406Z,100175.53
2023-03-06T05:47:38.434Z,100182.78
2023-03-06T05:48:41.330Z,100181.94
2023-03-06T05:49:43.933Z,100184.66
2023-03-06T05:50:45.484Z,100184.78
2023-03-06T05:51:48.021Z,100181.28
2023-03-06T05:52:50.996Z,100168.22
2023-03-06T05:53:52.779Z,100167.41
2023-03-06T05:54:56.029Z,100170.78
2023-03-06T05:55:58.477Z,100172.47
2023-03-06T05:57:01.153Z,100168.06
2023-03-06T05:58:02.726Z,100163.63
2023-03-06T05:59:05.267Z,100161.75
2023-03-06T06:00:09.161Z,100167.00
2023-03-06T06:01:20.742Z,100164.38
2023-03-06T06:02:22.630Z,100160.06
2023-03-06T06:03:25.768Z,100163.63
2023-03-06T06:04:28.748Z,100162.81
2023-03-06T06:05:31.256Z,100154.91
2023-03-06T06:06:32.771Z,100163.63
2023-03-06T06:07:35.355Z,100161.97
2023-03-06T06:08:37.340Z,100156.91
2023-03-06T06:09:39.964Z,100160.47
2023-03-06T06:10:41.717Z,100154.50
2023-03-06T06:11:44.596Z,100157.13
2023-03-06T06:12:46.123Z,100153.72
2023-03-06T06:13:49.961Z,100155.50
2023-03-06T06:14:52.464Z,100156.47
2023-03-06T06:15:54.272Z,100169.50
2023-03-06T06:16:57.331Z,100167.81
2023-03-06T06:17:59.004Z,100165.94
2023-03-06T06:19:01.544Z,100160.69
2023-03-06T06:20:06.477Z,100160.69
2023-03-06T06:21:11.425Z,100172.88
2023-03-06T06:22:14.158Z,100158.78
2023-03-06T06:23:15.781Z,100162.25
2023-03-06T06:24:20.304Z,100157.00
2023-03-06T06:25:21.851Z,100155.22
2023-03-06T06:26:24.389Z,100152.59
2023-03-06T06:27:25.978Z,100163.94
2023-03-06T06:28:28.652Z,100162.38
2023-03-06T06:29:30.360Z,100165.94
2023-03-06T06:30:42.904Z,100170.44
2023-03-06T06:31:44.824Z,100167.00
2023-03-06T06:32:47.369Z,100156.47
2023-03-06T06:33:48.902Z,100164.25
2023-03-06T06:34:51.559Z,100166.88
2023-03-06T06:35:54.784Z,100169.50
2023-03-06T06:36:57.356Z,100157.28
2023-03-06T06:38:00.010Z,100159.19
2023-03-06T06:39:01.885Z,100157.28
2023-03-06T06:40:05.419Z,100164.44
2023-03-06T06:41:35.576Z,100171.41
2023-03-06T06:42:36.966Z,100156.47
2023-03-06T06:43:40.766Z,100161.72
2023-03-06T06:44:43.418Z,100156.69
2023-03-06T06:45:44.976Z,100167.19
2023-03-06T06:48:12.748Z,100162.88
2023-03-06T06:49:14.775Z,100169.06
2023-03-06T06:50:17.626Z,100171.69
2023-03-06T06:51:20.813Z,100163.81
2023-03-06T06:52:24.384Z,100164.66
2023-03-06T06:53:27.431Z,100164.66
2023-03-06T06:54:31.056Z,100161.09
2023-03-06T06:55:33.586Z,100164.56
2023-03-06T06:56:35.447Z,100165.28
2023-03-06T06:57:38.103Z,100173.06
2023-03-06T06:58:39.766Z,100163.41
2023-03-06T06:59:42.562Z,100165.94
2023-03-06T07:00:44.237Z,100170.25
2023-03-06T07:01:47.043Z,100158.78
2023-03-06T07:02:51.084Z,100157.84
2023-03-06T07:03:52.665Z,100162.16
2023-03-06T07:05:04.802Z,100168.16
2023-03-06T07:06:16.037Z,100168.06
2023-03-06T07:07:19.903Z,100169.84
2023-03-06T07:08:21.644Z,100167.22
2023-03-06T07:09:24.286Z,100167.22
2023-03-06T07:10:26.977Z,100165.31
2023-03-06T07:11:28.544Z,100168.66
2023-03-06T07:12:32.721Z,100172.91
2023-03-06T07:13:34.399Z,100166.63
2023-03-06T07:14:37.241Z,100167.34
2023-03-06T07:15:38.972Z,100168.09
2023-03-06T07:16:41.466Z,100165.47
2023-03-06T07:17:43.149Z,100168.94
2023-03-06T07:18:46.221Z,100169.75
2023-03-06T07:19:49.085Z,100173.16
2023-03-06T07:20:51.637Z,100173.03
2023-03-06T07:21:54.160Z,100172.81
2023-03-06T07:22:58.029Z,100172.72
2023-03-06T07:24:00.542Z,100169.88
2023-03-06T07:25:03.261Z,100181.13
2023-03-06T07:26:06.196Z,100174.94
2023-03-06T07:27:08.077Z,100171.47
2023-03-06T07:28:10.713Z,100179.25
2023-03-06T07:29:12.300Z,100179.25
2023-03-06T07:30:15.157Z,100174.00
2023-03-06T07:31:17.724Z,100177.47
2023-03-06T07:32:20.655Z,100172.31
2023-03-06T07:33:23.235Z,100175.88
2023-03-06T07:34:25.857Z,100174.94
2023-03-06T07:35:27.637Z,100180.19
2023-03-06T07:36:30.225Z,100176.09
2023-03-06T07:37:32.925Z,100179.47
2023-03-06T07:38:36.281Z,100176.84
2023-03-06T07:39:38.826Z,100175.03
2023-03-06T07:40:42.138Z,100168.94
2023-03-06T07:41:43.741Z,100176.72
2023-03-06T07:42:46.838Z,100175.88
2023-03-06T07:43:49.233Z,100177.56
2023-03-06T07:44:51.753Z,100182.84
2023-03-06T07:45:58.117Z,100180.19
2023-03-06T07:46:59.665Z,100174.09
2023-03-06T07:48:02.203Z,100175.03
2023-03-06T07:49:03.784Z,100174.22
2023-03-06T07:50:07.790Z,100174.22
2023-03-06T07:51:14.761Z,100179.47
2023-03-06T07:52:17.287Z,100175.88
2023-03-06T07:53:22.431Z,100173.16
2023-03-06T07:54:26.305Z,100170.41
2023-03-06T07:55:28.020Z,100176.31
2023-03-06T07:56:30.507Z,100170.94
2023-03-06T07:57:32.120Z,100176.09
2023-03-06T07:58:34.616Z,100169.78
2023-03-06T07:59:37.211Z,100174.00
2023-03-06T08:00:38.788Z,100176.50
2023-03-06T08:01:41.269Z,100173.78
2023-03-06T08:02:43.335Z,100176.19
2023-03-06T08:03:46.390Z,100164.75
2023-03-06T08:04:52.199Z,100172.50
2023-03-06T08:05:54.696Z,100171.44
2023-03-06T08:06:57.484Z,100175.69
2023-03-06T08:08:01.085Z,100172.94
2023-03-06T08:09:03.163Z,100162.41
2023-03-06T08:10:07.905Z,100172.00
2023-03-06T08:11:11.272Z,100164.09
2023-03-06T08:12:15.752Z,100166.59
2023-03-06T08:13:19.085Z,100166.59
2023-03-06T08:14:21.674Z,100159.56
2023-03-06T08:15:23.432Z,100169.13
2023-03-06T08:16:28.496Z,100163.78
2023-03-06T08:17:30.127Z,100155.66
2023-03-06T08:18:33.072Z,100160.72
2023-03-06T08:19:34.664Z,100166.69
2023-03-06T08:20:37.231Z,100163.13
2023-03-06T08:21:39.908Z,100169.97
2023-03-06T08:22:41.918Z,100167.97
2023-03-06T08:23:44.938Z,100170.38
2023-03-06T08:24:47.529Z,100162.25
2023-03-06T08:25:56.939Z,100160.25
2023-03-06T08:26:59.559Z,100149.50
2023-03-06T08:28:02.154Z,100157.31
2023-03-06T08:29:04.793Z,100155.41
2023-03-06T08:30:07.958Z,100159.59
2023-03-06T08:31:13.246Z,100163.78
2023-03-06T08:32:15.929Z,100160.22
2023-03-06T08:33:18.490Z,100160.13
2023-03-06T08:34:24.156Z,100170.53
2023-03-06T08:35:26.746Z,100169.38
2023-03-06T08:36:29.158Z,100172.72
2023-03-06T08:37:31.754Z,100169.88
2023-03-06T08:38:35.301Z,100168.91
2023-03-06T08:39:37.845Z,100169.88
2023-03-06T08:40:39.581Z,100163.78
2023-03-06T08:41:43.547Z,100169.38
2023-03-06T08:42:48.834Z,100159.91
2023-03-06T08:43:50.920Z,100153.06
2023-03-06T08:44:53.441Z,100154.84
2023-03-06T08:45:55.746Z,100153.06
2023-03-06T08:46:58.452Z,100156.41
2023-03-06T08:48:00.025Z,100151.16
2023-03-06T08:49:03.022Z,100154.63
2023-03-06T08:50:06.115Z,100157.28
2023-03-06T08:51:09.540Z,100151.16
2023-03-06T08:52:12.443Z,100149.25
2023-03-06T08:53:15.166Z,100156.91
2023-03-06T08:54:17.712Z,100150.72
2023-03-06T08:55:20.223Z,100152.41
2023-03-06T08:56:24.571Z,100153.25
2023-03-06T08:57:28.424Z,100150.72
2023-03-06T08:58:31.840Z,100150.72
2023-03-06T08:59:33.385Z,100148.19
2023-03-06T09:00:36.151Z,100151.66
2023-03-06T09:01:39.828Z,100153.56
2023-03-06T09:02:42.663Z,100152.63
2023-03-06T09:03:44.570Z,100150.09
2023-03-06T09:04:47.057Z,100151.03
2023-03-06T09:05:49.086Z,100151.03
2023-03-06T09:06:52.143Z,100157.28
2023-03-06T09:07:54.606Z,100152.09
2023-03-06T09:08:57.355Z,100159.16
2023-03-06T09:09:59.891Z,100157.38
2023-03-06T09:11:01.498Z,100160.84
2023-03-06T09:12:04.388Z,100154.72
2023-03-06T09:13:07.439Z,100153.88
2023-03-06T09:14:10.003Z,100157.59
2023-03-06T09:15:14.279Z,100158.53
2023-03-06T09:16:15.861Z,100160.44
2023-03-06T09:17:18.461Z,100162.34
2023-03-06T09:18:20.031Z,100168.56
2023-03-06T09:19:22.552Z,100159.94
2023-03-06T09:20:24.201Z,100166.16
2023-03-06T09:21:28.091Z,100160.88
2023-03-06T09:22:29.650Z,100162.56
2023-03-06T09:23:32.468Z,100161.59
2023-03-06T09:24:35.048Z,100165.00
2023-03-06T09:25:36.852Z,100161.38
2023-03-06T09:26:46.050Z,100162.13
2023-03-06T09:28:01.800Z,100167.19
2023-03-06T09:29:09.596Z,100170.31
2023-03-06T09:30:12.232Z,100169.88
2023-03-06T09:31:16.838Z,100172.28
2023-03-06T09:32:19.446Z,100168.47
2023-03-06T09:33:22.132Z,100166.47
2023-03-06T09:34:24.883Z,100163.75
2023-03-06T09:35:26.475Z,100162.66
2023-03-06T09:36:29.086Z,100161.50
2023-03-06T09:37:31.575Z,100166.41
2023-03-06T09:38:33.454Z,100167.66
2023-03-06T09:39:36.095Z,100163.84
2023-03-06T09:40:49.854Z,100161.94
2023-03-06T09:41:53.068Z,100168.03
2023-03-06T09:42:54.702Z,100172.69
2023-03-06T09:44:04.894Z,100171.22
2023-03-06T09:45:14.246Z,100172.53
2023-03-06T09:46:23.264Z,100170.25
2023-03-06T09:47:46.536Z,100167.94
2023-03-06T09:49:01.363Z,100172.56
2023-03-06T09:50:14.859Z,100164.19
2023-03-06T09:51:22.046Z,100169.44
2023-03-06T09:52:31.472Z,100160.69
2023-03-06T09:53:50.560Z,100159.84
2023-03-06T09:54:55.472Z,100164.19
2023-03-06T09:56:00.956Z,100167.75
2023-03-06T09:57:03.794Z,100167.75
2023-03-06T09:58:15.170Z,100166.06
2023-03-06T09:59:24.348Z,100166.06
2023-03-06T10:00:33.058Z,100168.59
2023-03-06T10:01:40.893Z,100169.44
2023-03-06T10:02:47.249Z,100176.38
2023-03-06T10:03:55.216Z,100169.44
2023-03-06T10:05:01.612Z,100171.34
2023-03-06T10:06:14.388Z,100168.81
2023-03-06T10:07:21.723Z,100174.09
2023-03-06T10:08:31.183Z,100169.78
2023-03-06T10:09:42.803Z,100171.47
2023-03-06T10:10:50.265Z,100164.38
2023-03-06T10:11:57.887Z,100163.44
2023-03-06T10:13:04.803Z,100159.84
2023-03-06T10:14:17.727Z,100167.53
2023-03-06T10:15:25.024Z,100158.69
2023-03-06T10:16:30.554Z,100169.00
2023-03-06T10:17:36.057Z,100160.13
2023-03-06T10:18:39.293Z,100163.50
2023-03-06T10:19:42.080Z,100165.16
2023-03-06T10:20:50.387Z,100161.50
2023-03-06T10:21:59.532Z,100169.28
2023-03-06T10:23:40.436Z,100163.78
2023-03-06T10:24:53.297Z,100162.00
2023-03-06T10:26:01.895Z,100160.28
2023-03-06T10:27:15.939Z,100159.47
2023-03-06T10:28:22.170Z,100156.00
2023-03-06T10:29:56.313Z,100156.94
2023-03-06T10:31:10.619Z,100161.38
2023-03-06T10:32:29.036Z,100159.91
2023-03-06T10:33:48.640Z,100162.03
2023-03-06T10:34:51.476Z,100164.91
2023-03-06T10:35:56.478Z,100168.47
2023-03-06T10:37:02.283Z,100157.22
2023-03-06T10:38:16.583Z,100164.38
2023-03-06T10:39:20.980Z,100165.34
2023-03-06T10:40:29.428Z,100168.06
2023-03-06T10:41:35.706Z,100162.94
2023-03-06T10:42:37.523Z,100162.94
2023-03-06T10:43:42.378Z,100167.13
2023-03-06T10:44:44.900Z,100171.09
2023-03-06T10:45:49.754Z,100162.03
2023-03-06T10:46:54.598Z,100170.44
2023-03-06T10:48:11.792Z,100163.78
2023-03-06T10:49:25.286Z,100163.56
2023-03-06T10:50:30.593Z,100167.66
2023-03-06T10:51:33.920Z,100169.22
2023-03-06T10:52:36.998Z,100170.06
2023-03-06T10:53:49.877Z,100172.69
2023-03-06T10:54:52.549Z,100163.13
2023-03-06T10:56:06.097Z,100168.50
2023-03-06T10:57:19.790Z,100169.56
2023-03-06T10:58:25.258Z,100175.06
2023-03-06T10:59:29.331Z,100178.88
2023-03-06T11:00:33.187Z,100169.28
2023-03-06T11:01:36.671Z,100169.41
2023-03-06T11:02:41.034Z,100179.09
2023-03-06T11:03:45.210Z,100181.81
2023-03-06T11:04:51.628Z,100178.47
2023-03-06T11:05:57.614Z,100179.41
2023-03-06T11:07:09.917Z,100179.75
2023-03-06T11:08:21.857Z,100174.50
2023-03-06T11:09:26.374Z,100171.97
2023-03-06T11:10:29.426Z,100177.22
2023-03-06T11:11:37.797Z,100173.88
2023-03-06T11:12:43.591Z,100185.25
2023-03-06T11:13:57.440Z,100184.19
2023-03-06T11:15:20.922Z,100181.41
2023-03-06T11:16:27.420Z,100183.34
2023-03-06T11:17:31.902Z,100182.72
2023-03-06T11:18:40.216Z,100175.88
2023-03-06T11:19:43.309Z,100182.09
2023-03-06T11:20:56.821Z,100184.72
2023-03-06T11:22:01.759Z,100178.50
2023-03-06T11:23:09.036Z,100172.19
2023-03-06T11:24:19.485Z,100178.28
2023-03-06T11:25:24.732Z,100181.66
2023-03-06T11:26:33.430Z,100187.13
2023-03-06T11:27:35.601Z,100180.19
2023-03-06T11:28:42.660Z,100187.25
2023-03-06T11:29:48.059Z,100174.31
2023-03-06T11:30:53.247Z,100180.63
2023-03-06T11:31:59.310Z,100178.00
2023-03-06T11:33:05.912Z,100180.63
2023-03-06T11:34:15.600Z,100189.28
2023-03-06T11:35:23.637Z,100181.16
2023-03-06T11:36:31.350Z,100173.25
2023-03-06T11:37:46.653Z,100173.13
2023-03-06T11:38:49.919Z,100173.75
2023-03-06T11:40:01.620Z,100176.78
2023-03-06T11:41:09.107Z,100179.09
2023-03-06T11:42:19.367Z,100171.91
2023-03-06T11:43:27.464Z,100173.59
2023-03-06T11:44:42.953Z,100173.47
2023-03-06T11:46:00.192Z,100171.69
2023-03-06T11:47:08.606Z,100165.47
2023-03-06T11:48:24.555Z,100167.03
2023-03-06T11:49:31.962Z,100166.81
2023-03-06T11:50:41.413Z,100170.06
2023-03-06T11:51:48.234Z,100169.84
2023-03-06T11:52:56.015Z,100165.31
2023-03-06T11:54:00.780Z,100159.06
2023-03-06T11:55:02.647Z,100159.91
2023-03-06T11:56:15.608Z,100157.19
2023-03-06T11:57:21.729Z,100153.56
2023-03-06T11:58:42.733Z,100161.16
2023-03-06T12:00:04.156Z,100154.69
2023-03-06T12:01:15.777Z,100154.25
2023-03-06T12:02:34.277Z,100154.72
2023-03-06T12:04:30.923Z,100149.13
2023-03-06T12:05:41.156Z,100143.63
2023-03-06T12:06:53.609Z,100143.38
2023-03-06T12:08:01.980Z,100135.38
2023-03-06T12:09:20.570Z,100136.94
2023-03-06T12:10:29.777Z,100138.72
2023-03-06T12:11:42.673Z,100132.38
2023-03-06T12:13:18.623Z,100139.22
2023-03-06T12:14:39.072Z,100137.41
2023-03-06T12:15:55.090Z,100136.59
2023-03-06T12:17:12.377Z,100138.38
2023-03-06T12:18:31.338Z,100140.19
2023-03-06T12:19:47.096Z,100132.38
2023-03-06T12:21:04.027Z,100133.34